Fort Wingate, New Mexico
Current Conditions -  °F | °C
As of 6:53 PM on Monday 24 Nov 2014 (Local Time) from KGUP Reporting Station
Clear Clear  
Wind Chill: 22°   Ceiling: Unl
Heat Index: 31°   Visibility: 10mi
Dew Point:   Wind: 10mph
Humidity: 31%   Direction: 350°N
Pressure: 30.3"   Gusts: NA
Location:  35.47°N, 108.55°W
Report Text: KGUP 250153Z AUTO 35009KT 10SM CLR M01/M16 A3030 RMK AO2 SLP339 T10061161
Loading
Personal Weather Stations






























Interactive Weather Map New forecast layout! Learn more

10-Day Weather Forecast

Advertisements
Track Severe Weather on mobile